Terminal Aerodrome Forecast
Issued by NWS

Home | Current Version | Previous Version | Text Only | Print | Product List | Glossary On
Versions: 1 2 3 4 5 6 7 8 9 10 11 12 13 14 15 16 17 18 19 20 21 22 23 24 25 26 27 28 29
000
FTUS41 KGYX 311126
TAFLEB
TAF
KLEB 311126Z 3112/0112 00000KT 3SM BR FEW060
     FM311215 24005KT P6SM FEW060
     FM311500 28012G18KT P6SM BKN050
     FM010000 00000KT P6SM SCT050
     FM010700 00000KT 3SM BR SCT002
     FM011100 00000KT P6SM SCT100=

USA.gov is the U.S. government's official web portal to all federal, state and local government web resources and services.